createdAt,value
2018-03-24T00:01:31.100Z,45.95
2018-03-24T00:03:58.908Z,50.63
2018-03-24T00:06:26.684Z,55.65
2018-03-24T00:08:55.214Z,57.17
2018-03-24T00:11:23.024Z,63.67
2018-03-24T00:13:51.544Z,59.13
2018-03-24T00:16:19.316Z,48.47
2018-03-24T00:18:47.177Z,58.42
2018-03-24T00:21:14.943Z,62.28
2018-03-24T00:23:42.724Z,53.97
2018-03-24T00:26:10.528Z,59.60
2018-03-24T00:28:39.053Z,56.60
2018-03-24T00:31:06.810Z,65.53
2018-03-24T00:33:34.820Z,60.30
2018-03-24T00:36:03.353Z,61.45
2018-03-24T00:38:31.118Z,54.13
2018-03-24T00:40:58.927Z,58.35
2018-03-24T00:43:26.678Z,58.38
2018-03-24T00:45:54.440Z,55.40
2018-03-24T00:48:22.246Z,56.92
2018-03-24T00:50:50.002Z,62.60
2018-03-24T00:53:17.750Z,62.75
2018-03-24T00:55:46.323Z,53.78
2018-03-24T00:58:14.850Z,60.30
2018-03-24T01:00:42.611Z,55.33
2018-03-24T01:03:10.419Z,46.63
2018-03-24T01:05:38.181Z,51.13
2018-03-24T01:08:06.748Z,48.58
2018-03-24T01:10:34.557Z,39.58
2018-03-24T01:13:02.307Z,40.03
2018-03-24T01:15:30.058Z,42.22
2018-03-24T01:17:58.649Z,48.50
2018-03-24T01:20:26.415Z,49.42
2018-03-24T01:22:54.183Z,42.97
2018-03-24T01:25:21.988Z,36.63
2018-03-24T01:27:49.738Z,34.90
2018-03-24T01:30:17.492Z,40.38
2018-03-24T01:32:45.311Z,34.28
2018-03-24T01:35:13.842Z,32.05
2018-03-24T01:37:41.601Z,40.42
2018-03-24T01:40:09.410Z,36.70
2018-03-24T01:42:37.922Z,39.95
2018-03-24T01:45:05.687Z,41.00
2018-03-24T01:47:33.501Z,43.45
2018-03-24T01:50:01.264Z,39.97
2018-03-24T01:52:29.027Z,33.03
2018-03-24T01:54:56.838Z,35.20
2018-03-24T01:57:24.614Z,45.97
2018-03-24T01:59:52.364Z,40.53
2018-03-24T02:02:20.171Z,41.67
2018-03-24T02:04:47.930Z,42.00
2018-03-24T02:07:15.683Z,40.70
2018-03-24T02:09:43.493Z,47.30
2018-03-24T02:12:11.272Z,41.28
2018-03-24T02:14:39.018Z,40.83
2018-03-24T02:17:06.831Z,44.47
2018-03-24T02:19:34.591Z,42.95
2018-03-24T02:22:02.343Z,40.47
2018-03-24T02:24:30.189Z,38.45
2018-03-24T02:26:57.943Z,37.53
2018-03-24T02:29:25.699Z,39.22
2018-03-24T02:31:53.512Z,35.10
2018-03-24T02:34:21.272Z,37.58
2018-03-24T02:36:49.025Z,37.88
2018-03-24T02:39:16.839Z,34.05
2018-03-24T02:41:44.595Z,36.13
2018-03-24T02:44:12.352Z,38.63
2018-03-24T02:46:40.195Z,40.15
2018-03-24T02:49:07.954Z,36.47
2018-03-24T02:51:35.708Z,37.70
2018-03-24T02:54:03.535Z,40.30
2018-03-24T02:56:31.296Z,35.85
2018-03-24T02:58:59.055Z,33.70
2018-03-24T03:01:26.860Z,43.20
2018-03-24T03:03:54.611Z,41.22
2018-03-24T03:06:22.381Z,33.25
2018-03-24T03:08:50.191Z,43.55
2018-03-24T03:11:17.964Z,43.97
2018-03-24T03:13:45.762Z,41.33
2018-03-24T03:16:13.575Z,46.25
2018-03-24T03:18:41.331Z,40.72
2018-03-24T03:21:09.112Z,48.72
2018-03-24T03:23:36.920Z,43.80
2018-03-24T03:26:04.675Z,56.67
2018-03-24T03:28:32.486Z,54.80
2018-03-24T03:31:10.233Z,68.05
2018-03-24T03:33:37.988Z,61.35
2018-03-24T03:36:05.742Z,71.70
2018-03-24T03:38:33.554Z,69.97
2018-03-24T03:41:02.081Z,62.50
2018-03-24T03:43:30.611Z,67.00
2018-03-24T03:45:59.216Z,62.72
2018-03-24T03:48:26.974Z,64.45
2018-03-24T03:50:54.733Z,71.12
2018-03-24T03:53:22.586Z,68.78
2018-03-24T03:55:51.097Z,65.03
2018-03-24T03:58:18.843Z,68.85
2018-03-24T04:00:46.648Z,69.45
2018-03-24T04:03:14.399Z,75.35
2018-03-24T04:05:42.158Z,72.28
2018-03-24T04:08:10.729Z,70.90
2018-03-24T04:10:38.484Z,65.22
2018-03-24T04:13:06.254Z,76.28
2018-03-24T04:15:34.064Z,101.85
2018-03-24T04:18:02.591Z,88.65
2018-03-24T04:20:30.341Z,89.15
2018-03-24T04:22:58.153Z,83.43
2018-03-24T04:25:25.963Z,84.05
2018-03-24T04:27:53.715Z,85.00
2018-03-24T04:30:21.530Z,82.57
2018-03-24T04:32:49.284Z,79.28
2018-03-24T04:35:17.039Z,75.07
2018-03-24T04:37:44.859Z,65.85
2018-03-24T04:40:12.608Z,63.75
2018-03-24T04:42:41.135Z,63.33
2018-03-24T04:45:08.938Z,66.03
2018-03-24T04:47:36.701Z,57.30
2018-03-24T04:50:04.475Z,57.85
2018-03-24T04:52:33.052Z,62.67
2018-03-24T04:55:01.591Z,66.78
2018-03-24T04:57:29.362Z,62.90
2018-03-24T04:59:57.186Z,65.78
2018-03-24T05:02:24.939Z,58.65
2018-03-24T05:04:52.692Z,62.08
2018-03-24T05:07:20.497Z,52.25
2018-03-24T05:09:48.287Z,54.15
2018-03-24T05:12:16.038Z,63.25
2018-03-24T05:14:43.843Z,53.63
2018-03-24T05:17:12.362Z,57.10
2018-03-24T05:19:40.166Z,47.67
2018-03-24T05:22:08.755Z,56.78
2018-03-24T05:24:37.298Z,52.28
2018-03-24T05:27:05.056Z,55.90
2018-03-24T05:29:32.868Z,53.55
2018-03-24T05:32:00.647Z,58.90
2018-03-24T05:34:28.404Z,57.95
2018-03-24T05:36:56.217Z,56.53
2018-03-24T05:39:25.690Z,57.85
2018-03-24T05:41:53.448Z,53.35
2018-03-24T05:44:21.260Z,63.28
2018-03-24T05:46:49.008Z,60.15
2018-03-24T05:49:16.776Z,61.45
2018-03-24T05:51:44.578Z,58.80
2018-03-24T05:54:12.338Z,51.85
2018-03-24T05:56:40.094Z,48.05
2018-03-24T05:59:07.905Z,53.03
2018-03-24T06:01:35.663Z,59.22
2018-03-24T06:04:03.457Z,58.97
2018-03-24T06:06:31.307Z,54.00
2018-03-24T06:08:59.051Z,56.70
2018-03-24T06:11:26.808Z,64.15
2018-03-24T06:13:54.615Z,54.88
2018-03-24T06:16:23.139Z,56.70
2018-03-24T06:18:50.897Z,51.70
2018-03-24T06:21:18.706Z,51.35
2018-03-24T06:23:46.472Z,58.22
2018-03-24T06:26:14.235Z,53.53
2018-03-24T06:28:42.827Z,63.10
2018-03-24T06:31:17.047Z,55.20
2018-03-24T06:33:45.679Z,53.78
2018-03-24T06:36:19.186Z,53.80
2018-03-24T06:38:46.995Z,48.55
2018-03-24T06:41:14.762Z,49.83
2018-03-24T06:43:42.523Z,55.90
2018-03-24T06:46:10.329Z,53.42
2018-03-24T06:48:38.087Z,49.05
2018-03-24T06:51:06.614Z,50.25
2018-03-24T06:53:35.195Z,45.72
2018-03-24T06:56:03.723Z,48.95
2018-03-24T06:58:32.306Z,53.75
2018-03-24T07:01:00.127Z,51.08
2018-03-24T07:03:27.883Z,49.28
2018-03-24T07:05:56.403Z,57.95
2018-03-24T07:08:24.214Z,50.25
2018-03-24T07:10:52.746Z,61.40
2018-03-24T07:13:20.502Z,67.18
2018-03-24T07:15:48.332Z,64.43
2018-03-24T07:18:16.121Z,61.70
2018-03-24T07:20:43.875Z,50.03
2018-03-24T07:23:11.675Z,48.22
2018-03-24T07:25:39.431Z,57.22
2018-03-24T07:28:07.183Z,57.30
2018-03-24T07:30:35.002Z,52.35
2018-03-24T07:33:03.530Z,48.95
2018-03-24T07:35:31.287Z,54.63
2018-03-24T07:37:59.092Z,41.85
2018-03-24T07:40:27.620Z,49.55
2018-03-24T07:42:55.371Z,49.72
2018-03-24T07:45:23.178Z,47.65
2018-03-24T07:47:50.942Z,51.15
2018-03-24T07:50:18.724Z,50.25
2018-03-24T07:52:47.298Z,57.38
2018-03-24T07:55:15.049Z,54.85
2018-03-24T07:57:42.806Z,54.60
2018-03-24T08:00:10.622Z,51.05
2018-03-24T08:02:38.376Z,51.17
2018-03-24T08:05:06.135Z,58.03
2018-03-24T08:07:33.963Z,52.65
2018-03-24T08:10:01.747Z,60.28
2018-03-24T08:12:30.284Z,62.45
2018-03-24T08:14:58.098Z,64.80
2018-03-24T08:17:25.859Z,51.80
2018-03-24T08:19:54.389Z,67.95
2018-03-24T08:22:22.207Z,59.35
2018-03-24T08:24:49.965Z,64.03
2018-03-24T08:27:17.724Z,58.35
2018-03-24T08:29:45.659Z,50.97
2018-03-24T08:32:13.420Z,63.15
2018-03-24T08:34:41.181Z,61.13
2018-03-24T08:37:09.316Z,59.10
2018-03-24T08:39:37.066Z,61.37
2018-03-24T08:42:04.826Z,56.35
2018-03-24T08:44:32.640Z,76.18
2018-03-24T08:47:00.387Z,55.05
2018-03-24T08:49:28.143Z,65.37
2018-03-24T08:51:55.975Z,73.57
2018-03-24T08:54:23.740Z,70.03
2018-03-24T08:56:51.513Z,66.43
2018-03-24T08:59:19.319Z,66.43
2018-03-24T09:01:47.071Z,66.50
2018-03-24T09:04:14.834Z,59.20
2018-03-24T09:06:42.642Z,62.80
2018-03-24T09:09:10.403Z,56.30
2018-03-24T09:11:38.159Z,70.45
2018-03-24T09:14:06.004Z,62.47
2018-03-24T09:16:34.536Z,60.42
2018-03-24T09:19:02.295Z,62.60
2018-03-24T09:21:30.108Z,62.28
2018-03-24T09:23:58.638Z,68.43
2018-03-24T09:26:26.387Z,65.90
2018-03-24T09:28:54.198Z,67.45
2018-03-24T09:31:21.955Z,56.80
2018-03-24T09:33:49.730Z,61.88
2018-03-24T09:36:18.311Z,68.70
2018-03-24T09:38:46.078Z,63.70
2018-03-24T09:41:14.591Z,65.47
2018-03-24T09:43:42.398Z,65.65
2018-03-24T09:46:10.155Z,61.15
2018-03-24T09:48:37.912Z,59.72
2018-03-24T09:51:05.722Z,62.25
2018-03-24T09:53:33.479Z,77.15
2018-03-24T09:56:01.239Z,57.80
2018-03-24T09:58:29.046Z,63.65
2018-03-24T10:00:56.802Z,69.60
2018-03-24T10:03:24.555Z,66.15
2018-03-24T10:05:52.371Z,69.12
2018-03-24T10:08:20.143Z,82.12
2018-03-24T10:10:48.663Z,65.93
2018-03-24T10:13:16.544Z,62.67
2018-03-24T10:15:44.300Z,55.20
2018-03-24T10:18:12.058Z,58.42
2018-03-24T10:20:46.591Z,61.50
2018-03-24T10:23:34.846Z,57.30
2018-03-24T10:26:02.666Z,54.15
2018-03-24T10:28:30.428Z,63.13
2018-03-24T10:30:58.199Z,66.07
2018-03-24T10:33:26.017Z,57.05
2018-03-24T10:35:54.557Z,48.00
2018-03-24T10:38:22.320Z,50.63
2018-03-24T10:40:50.130Z,49.20
2018-03-24T10:43:24.247Z,55.95
2018-03-24T10:45:52.820Z,48.35
2018-03-24T10:48:21.343Z,49.00
2018-03-24T10:50:49.108Z,56.03
2018-03-24T10:53:16.983Z,50.17
2018-03-24T10:55:44.764Z,52.58
2018-03-24T10:58:12.528Z,59.83
2018-03-24T11:00:40.339Z,51.28
2018-03-24T11:03:08.090Z,44.53
2018-03-24T11:05:35.863Z,51.22
2018-03-24T11:08:03.686Z,41.75
2018-03-24T11:10:31.451Z,47.90
2018-03-24T11:12:59.238Z,39.78
2018-03-24T11:15:27.056Z,44.15
2018-03-24T11:17:54.814Z,44.55
2018-03-24T11:20:22.580Z,37.83
2018-03-24T11:22:50.398Z,39.70
2018-03-24T11:25:18.160Z,39.08
2018-03-24T11:27:45.919Z,42.05
2018-03-24T11:30:13.749Z,33.95
2018-03-24T11:32:41.515Z,37.10
2018-03-24T11:35:10.039Z,39.08
2018-03-24T11:37:37.856Z,39.30
2018-03-24T11:40:06.386Z,35.45
2018-03-24T11:42:34.147Z,34.00
2018-03-24T11:45:02.067Z,43.40
2018-03-24T11:47:30.611Z,32.17
2018-03-24T11:49:58.505Z,33.17
2018-03-24T11:52:27.121Z,35.33
2018-03-24T11:54:54.904Z,33.97
2018-03-24T11:57:22.695Z,29.02
2018-03-24T11:59:50.556Z,33.13
2018-03-24T12:02:18.431Z,27.67
2018-03-24T12:04:46.193Z,26.52
2018-03-24T12:07:14.842Z,32.92
2018-03-24T12:09:42.635Z,31.58
2018-03-24T12:12:10.398Z,33.00
2018-03-24T12:14:38.232Z,31.35
2018-03-24T12:17:06.055Z,30.08
2018-03-24T12:19:33.820Z,21.60
2018-03-24T12:22:01.631Z,19.70
2018-03-24T12:24:29.429Z,27.70
2018-03-24T12:26:57.962Z,21.23
2018-03-24T12:29:25.795Z,22.33
2018-03-24T12:31:53.583Z,17.10
2018-03-24T12:34:21.350Z,17.12
2018-03-24T12:36:49.175Z,19.37
2018-03-24T12:39:16.931Z,14.43
2018-03-24T12:41:44.698Z,12.23
2018-03-24T12:44:12.510Z,12.60
2018-03-24T12:46:40.272Z,21.45
2018-03-24T12:49:08.051Z,21.73
2018-03-24T12:51:35.866Z,18.85
2018-03-24T12:54:03.642Z,19.90
2018-03-24T12:56:31.406Z,20.67
2018-03-24T12:58:59.219Z,25.15
2018-03-24T13:01:27.762Z,17.92
2018-03-24T13:03:55.537Z,22.13
2018-03-24T13:06:24.387Z,22.85
2018-03-24T13:08:52.181Z,25.15
2018-03-24T13:11:19.951Z,21.52
2018-03-24T13:13:47.763Z,24.40
2018-03-24T13:16:15.528Z,24.25
2018-03-24T13:18:43.292Z,20.95
2018-03-24T13:21:11.101Z,22.65
2018-03-24T13:23:38.916Z,27.50
2018-03-24T13:26:06.775Z,19.42
2018-03-24T13:28:34.586Z,17.35
2018-03-24T13:31:02.346Z,14.20
2018-03-24T13:33:30.099Z,23.23
2018-03-24T13:35:57.926Z,26.23
2018-03-24T13:38:25.695Z,23.48
2018-03-24T13:40:53.462Z,21.25
2018-03-24T13:43:21.294Z,25.05
2018-03-24T13:45:49.810Z,20.50
2018-03-24T13:48:17.576Z,22.83
2018-03-24T13:50:45.401Z,24.45
2018-03-24T13:53:14.043Z,25.33
2018-03-24T13:55:41.814Z,23.25
2018-03-24T13:58:09.627Z,22.50
2018-03-24T14:00:37.382Z,18.92
2018-03-24T14:03:05.161Z,21.95
2018-03-24T14:05:32.987Z,26.02
2018-03-24T14:08:01.518Z,27.67
2018-03-24T14:10:29.283Z,21.85
2018-03-24T14:12:57.097Z,25.83
2018-03-24T14:15:25.675Z,24.48
2018-03-24T14:17:54.201Z,28.75
2018-03-24T14:20:22.032Z,22.30
2018-03-24T14:22:49.792Z,25.65
2018-03-24T14:25:17.563Z,24.87
2018-03-24T14:27:45.375Z,25.52
2018-03-24T14:30:13.152Z,25.77
2018-03-24T14:32:40.968Z,23.02
2018-03-24T14:35:08.780Z,23.00
2018-03-24T14:37:37.339Z,26.77
2018-03-24T14:40:05.104Z,23.33
2018-03-24T14:42:32.928Z,24.60
2018-03-24T14:45:00.700Z,28.58
2018-03-24T14:47:28.462Z,25.48
2018-03-24T14:49:56.276Z,26.42
2018-03-24T14:52:24.830Z,28.55
2018-03-24T14:54:52.612Z,28.50
2018-03-24T14:57:20.429Z,21.27
2018-03-24T14:59:49.072Z,27.27
2018-03-24T15:02:17.611Z,28.25
2018-03-24T15:04:45.434Z,32.42
2018-03-24T15:07:13.195Z,36.35
2018-03-24T15:09:40.999Z,30.15
2018-03-24T15:12:08.864Z,34.95
2018-03-24T15:14:36.626Z,33.30
2018-03-24T15:17:04.427Z,32.50
2018-03-24T15:19:33.009Z,31.15
2018-03-24T15:22:01.769Z,24.92
2018-03-24T15:24:29.547Z,24.87
2018-03-24T15:26:57.376Z,27.45
2018-03-24T15:29:36.932Z,23.50
2018-03-24T15:32:16.552Z,28.10
2018-03-24T15:34:56.080Z,32.30
2018-03-24T15:37:23.896Z,31.30
2018-03-24T15:39:52.533Z,31.95
2018-03-24T15:42:20.306Z,32.47
2018-03-24T15:44:48.135Z,36.63
2018-03-24T15:47:15.888Z,31.30
2018-03-24T15:49:43.654Z,33.30
2018-03-24T15:52:11.471Z,42.15
2018-03-24T15:54:39.242Z,40.55
2018-03-24T15:57:07.764Z,33.97
2018-03-24T15:59:35.578Z,27.52
2018-03-24T16:02:03.355Z,28.90
2018-03-24T16:04:31.875Z,33.63
2018-03-24T16:06:59.695Z,30.98
2018-03-24T16:09:28.211Z,39.47
2018-03-24T16:11:56.014Z,28.00
2018-03-24T16:14:23.855Z,38.38
2018-03-24T16:16:52.396Z,37.22
2018-03-24T16:19:20.190Z,38.78
2018-03-24T16:21:48.045Z,42.70
2018-03-24T16:24:15.865Z,40.95
2018-03-24T16:26:43.740Z,43.80
2018-03-24T16:29:11.648Z,45.45
2018-03-24T16:31:39.426Z,44.97
2018-03-24T16:34:07.437Z,43.80
2018-03-24T16:36:36.068Z,41.40
2018-03-24T16:39:03.851Z,45.50
2018-03-24T16:41:31.744Z,38.42
2018-03-24T16:43:59.572Z,43.35
2018-03-24T16:46:27.327Z,41.88
2018-03-24T16:48:55.094Z,42.20
2018-03-24T16:51:22.953Z,47.67
2018-03-24T16:53:50.731Z,43.20
2018-03-24T16:56:18.584Z,46.47
2018-03-24T16:58:46.468Z,48.70
2018-03-24T17:01:14.332Z,42.58
2018-03-24T17:03:42.087Z,58.10
2018-03-24T17:06:09.926Z,42.42
2018-03-24T17:08:37.693Z,46.00
2018-03-24T17:11:05.460Z,54.53
2018-03-24T17:13:34.187Z,54.30
2018-03-24T17:16:02.722Z,54.97
2018-03-24T17:18:30.492Z,52.83
2018-03-24T17:20:58.390Z,50.60
2018-03-24T17:23:26.915Z,50.83
2018-03-24T17:25:54.711Z,64.97
2018-03-24T17:28:22.528Z,54.42
2018-03-24T17:30:50.297Z,55.60
2018-03-24T17:33:18.078Z,56.90
2018-03-24T17:35:45.890Z,50.17
2018-03-24T17:38:14.416Z,58.67
2018-03-24T17:40:42.189Z,54.28
2018-03-24T17:43:10.001Z,58.97
2018-03-24T17:45:37.820Z,59.53
2018-03-24T17:48:05.593Z,57.05
2018-03-24T17:50:33.637Z,63.08
2018-03-24T17:53:01.395Z,65.03
2018-03-24T17:55:29.931Z,61.80
2018-03-24T17:57:57.740Z,63.78
2018-03-24T18:00:26.287Z,58.03
2018-03-24T18:02:54.052Z,58.72
2018-03-24T18:05:22.038Z,59.20
2018-03-24T18:07:49.794Z,68.15
2018-03-24T18:10:17.559Z,64.05
2018-03-24T18:12:45.414Z,63.83
2018-03-24T18:15:13.171Z,58.20
2018-03-24T18:17:40.931Z,63.38
2018-03-24T18:20:08.750Z,55.03
2018-03-24T18:22:36.506Z,59.58
2018-03-24T18:25:04.900Z,52.03
2018-03-24T18:27:33.482Z,63.05
2018-03-24T18:30:01.277Z,64.70
2018-03-24T18:32:29.043Z,63.33
2018-03-24T18:34:56.856Z,61.08
2018-03-24T18:37:25.380Z,66.75
2018-03-24T18:39:53.161Z,66.45
2018-03-24T18:42:21.079Z,63.00
2018-03-24T18:44:50.759Z,58.67
2018-03-24T18:47:18.599Z,51.45
2018-03-24T18:49:46.470Z,61.42
2018-03-24T18:52:14.364Z,62.50
2018-03-24T18:54:42.259Z,60.90
2018-03-24T18:57:10.132Z,55.53
2018-03-24T18:59:37.939Z,56.75
2018-03-24T19:02:05.735Z,52.45
2018-03-24T19:04:34.416Z,62.83
2018-03-24T19:07:04.238Z,59.10
2018-03-24T19:09:32.023Z,56.70
2018-03-24T19:11:59.935Z,52.60
2018-03-24T19:14:28.470Z,57.25
2018-03-24T19:16:56.269Z,52.53
2018-03-24T19:19:24.175Z,47.90
2018-03-24T19:21:51.953Z,44.75
2018-03-24T19:24:19.757Z,46.03
2018-03-24T19:26:47.656Z,49.65
2018-03-24T19:29:16.203Z,49.45
2018-03-24T19:31:43.980Z,49.55
2018-03-24T19:34:11.847Z,46.37
2018-03-24T19:36:40.434Z,51.17
2018-03-24T19:39:09.006Z,45.67
2018-03-24T19:41:36.840Z,43.38
2018-03-24T19:44:04.622Z,44.03
2018-03-24T19:46:32.410Z,49.47
2018-03-24T19:49:01.007Z,42.13
2018-03-24T19:51:28.788Z,42.15
2018-03-24T19:53:56.985Z,44.28
2018-03-24T19:56:24.886Z,46.80
2018-03-24T19:58:53.538Z,43.17
2018-03-24T20:01:21.338Z,44.05
2018-03-24T20:03:49.235Z,48.20
2018-03-24T20:06:17.010Z,43.80
2018-03-24T20:08:44.834Z,41.33
2018-03-24T20:11:12.702Z,44.97
2018-03-24T20:13:40.498Z,45.58
2018-03-24T20:16:08.266Z,45.03
2018-03-24T20:18:36.104Z,50.50
2018-03-24T20:21:03.909Z,50.00
2018-03-24T20:23:31.722Z,47.05
2018-03-24T20:25:59.578Z,52.90
2018-03-24T20:28:27.348Z,46.70
2018-03-24T20:30:55.403Z,47.97
2018-03-24T20:33:23.589Z,43.08
2018-03-24T20:35:51.365Z,40.63
2018-03-24T20:38:19.144Z,41.80
2018-03-24T20:40:47.637Z,45.08
2018-03-24T20:43:15.482Z,51.72
2018-03-24T20:45:44.024Z,44.42
2018-03-24T20:48:11.870Z,42.17
2018-03-24T20:50:40.428Z,40.88
2018-03-24T20:53:08.264Z,45.50
2018-03-24T20:55:36.089Z,42.35
2018-03-24T20:58:04.664Z,45.53
2018-03-24T21:00:33.206Z,36.63
2018-03-24T21:03:01.024Z,46.33
2018-03-24T21:05:28.808Z,41.70
2018-03-24T21:07:56.615Z,40.50
2018-03-24T21:10:24.449Z,37.50
2018-03-24T21:12:52.239Z,38.92
2018-03-24T21:15:20.027Z,38.85
2018-03-24T21:17:47.918Z,36.72
2018-03-24T21:20:15.710Z,47.55
2018-03-24T21:22:44.261Z,42.95
2018-03-24T21:25:12.089Z,41.53
2018-03-24T21:27:39.907Z,43.33
2018-03-24T21:30:07.679Z,47.10
2018-03-24T21:32:35.524Z,46.42
2018-03-24T21:35:03.305Z,43.85
2018-03-24T21:37:34.440Z,41.90
2018-03-24T21:40:02.362Z,47.78
2018-03-24T21:42:30.146Z,41.97
2018-03-24T21:44:57.960Z,41.03
2018-03-24T21:47:26.544Z,41.63
2018-03-24T21:49:55.069Z,44.60
2018-03-24T21:52:22.964Z,45.38
2018-03-24T21:54:50.796Z,41.50
2018-03-24T21:57:18.671Z,44.25
2018-03-24T21:59:46.492Z,44.55
2018-03-24T22:02:15.090Z,41.80
2018-03-24T22:04:42.880Z,46.37
2018-03-24T22:07:10.663Z,46.17
2018-03-24T22:09:38.496Z,44.03
2018-03-24T22:12:06.317Z,51.22
2018-03-24T22:14:34.146Z,43.28
2018-03-24T22:17:02.142Z,39.35
2018-03-24T22:19:30.795Z,40.72
2018-03-24T22:21:58.569Z,46.85
2018-03-24T22:24:26.474Z,46.22
2018-03-24T22:26:54.396Z,47.20
2018-03-24T22:29:22.961Z,41.70
2018-03-24T22:31:50.936Z,52.03
2018-03-24T22:34:18.823Z,43.30
2018-03-24T22:36:47.413Z,48.42
2018-03-24T22:39:16.058Z,53.38
2018-03-24T22:41:43.848Z,45.38
2018-03-24T22:44:11.687Z,47.92
2018-03-24T22:46:40.008Z,44.25
2018-03-24T22:49:07.825Z,47.42
2018-03-24T22:51:35.699Z,48.35
2018-03-24T22:54:03.670Z,55.17
2018-03-24T22:56:31.445Z,52.88
2018-03-24T22:58:59.198Z,44.70
2018-03-24T23:01:27.112Z,51.58
2018-03-24T23:03:54.875Z,56.30
2018-03-24T23:06:22.626Z,43.85
2018-03-24T23:08:50.449Z,50.88
2018-03-24T23:11:18.218Z,48.10
2018-03-24T23:13:46.026Z,46.25
2018-03-24T23:16:14.443Z,50.95
2018-03-24T23:18:42.211Z,48.15
2018-03-24T23:21:09.973Z,51.17
2018-03-24T23:23:37.816Z,55.95
2018-03-24T23:26:05.593Z,50.45
2018-03-24T23:28:33.414Z,51.92
2018-03-24T23:31:01.241Z,48.85
2018-03-24T23:33:29.780Z,50.80
2018-03-24T23:35:57.539Z,54.97
2018-03-24T23:38:25.382Z,54.47
2018-03-24T23:40:53.242Z,50.75
2018-03-24T23:43:21.025Z,52.60
2018-03-24T23:45:48.860Z,60.60
2018-03-24T23:48:16.619Z,61.03
2018-03-24T23:50:44.377Z,57.28
2018-03-24T23:53:12.190Z,60.92
2018-03-24T23:55:39.954Z,55.55
2018-03-24T23:58:07.716Z,68.00
